Flight Track Log - Related Links

Times and Time Zones

All times are in EDT time to prevent confusion due to time zone crossing. See the BJS615 flight status page for this flight to view local times or setup timezone preferences in your user account.

Time Position Orientation Groundspeed Altitude Reporting Facility
EDT Latitude Longitude Course Direction KTS MPH feet Rate Location/Type
Sun 09:17:04 AM 33.8500 -84.3333 270° West 176 203 2,700  Level Atlanta TRACON
Sun 09:18:04 AM 33.8500 -84.4000 270° West 207 238 4,800 1,150 Climbing Atlanta TRACON
Sun 09:19:04 AM 33.8500 -84.4833 256° West 259 298 5,000 150 Climbing Atlanta TRACON
Sun 09:20:04 AM 33.8333 -84.5667 268° West 258 297 5,100 1,962 Climbing Atlanta TRACON
Sun 09:21:40 AM 33.8300 -84.7114 268° West 275 316 10,100 3,500 Climbing Atlanta Center
Sun 09:22:40 AM 33.8272 -84.8089 264° West 286 329 14,200 4,000 Climbing Atlanta Center
Sun 09:23:40 AM 33.8183 -84.9114 266° West 307 353 18,100 3,372 Climbing Atlanta Center
Sun 09:24:41 AM 33.8111 -85.0264 264° West 335 386 21,000 2,900 Climbing Atlanta Center
Sun 09:25:40 AM 33.7997 -85.1486 264° West 362 417 23,900 2,773 Climbing Atlanta Center
Sun 09:26:40 AM 33.7881 -85.2861 269° West 376 433 26,500 2,350 Climbing Atlanta Center
Sun 09:27:40 AM 33.7864 -85.4211 265° West 387 445 28,600 1,950 Climbing Atlanta Center
Sun 09:28:40 AM 33.7767 -85.5583 264° West 401 461 30,400 2,200 Climbing Atlanta Center
Sun 09:29:40 AM 33.7644 -85.6931 265° West 411 473 33,000 2,200 Climbing Atlanta Center
Sun 09:30:40 AM 33.7567 -85.8003 265° West 411 473 34,800 2,100 Climbing Atlanta Center
Sun 09:31:40 AM 33.7464 -85.9300 264° West 388 447 37,200 2,050 Climbing Atlanta Center
Sun 09:32:40 AM 33.7361 -86.0547 267° West 381 438 38,900 1,150 Climbing Atlanta Center
Sun 09:33:40 AM 33.7297 -86.1794 268° West 375 432 39,500 600 Climbing Atlanta Center
Sun 09:34:40 AM 33.7253 -86.3092 267° West 387 445 40,100 750 Climbing Atlanta Center
Sun 09:35:40 AM 33.7186 -86.4439 266° West 397 457 41,000 1,050 Climbing Atlanta Center
Sun 09:36:40 AM 33.7094 -86.5883 268° West 402 463 42,200 1,000 Climbing Atlanta Center
Sun 09:37:40 AM 33.7047 -86.7181 265° West 402 463 43,000 400 Climbing Atlanta Center
Sun 09:38:40 AM 33.6956 -86.8478 266° West 402 463 43,000  Level Atlanta Center
Sun 09:40:12 AM 33.6839 -87.0419 266° West 418 481 43,000  Level Memphis Center
Sun 09:41:12 AM 33.6769 -87.1722 265° West 413 475 43,000  Level Memphis Center
Sun 09:42:12 AM 33.6675 -87.3047 267° West 407 468 43,000  Level Memphis Center
Sun 09:43:12 AM 33.6606 -87.4397 267° West 407 468 43,000  Level Memphis Center
Sun 09:44:12 AM 33.6533 -87.5847 266° West 407 468 43,000  Level Memphis Center
Sun 09:45:12 AM 33.6458 -87.7172 265° West 407 468 43,000  Level Memphis Center
Sun 09:46:12 AM 33.6361 -87.8497 264° West 407 468 43,000  Level Memphis Center
Sun 09:47:12 AM 33.6239 -87.9822 254° West 407 468 43,000  Level Memphis Center
Sun 09:48:12 AM 33.5931 -88.1103 254° West 407 468 43,000  Level Memphis Center
Sun 09:49:12 AM 33.5658 -88.2256 253° West 402 463 43,000  Level Memphis Center
Sun 09:50:12 AM 33.5344 -88.3511 252° West 402 463 43,000  Level Memphis Center
Sun 09:51:12 AM 33.5008 -88.4739 254° West 402 463 43,000  Level Memphis Center
Sun 09:52:12 AM 33.4694 -88.6042 252° West 402 463 43,000  Level Memphis Center
Sun 09:53:12 AM 33.4356 -88.7292 252° West 402 463 43,000  Level Memphis Center
Sun 09:54:12 AM 33.4017 -88.8567 252° West 402 463 43,000  Level Memphis Center
Sun 09:55:12 AM 33.3678 -88.9842 254° West 402 463 43,000  Level Memphis Center
Sun 09:56:12 AM 33.3358 -89.1139 256° West 402 463 43,000  Level Memphis Center
Sun 09:57:12 AM 33.3058 -89.2586 258° West 410 472 43,000  Level Memphis Center
Sun 09:58:12 AM 33.2819 -89.3906 257° West 410 472 43,000  Level Memphis Center
Sun 09:59:12 AM 33.2556 -89.5225 258° West 415 478 43,000  Level Memphis Center
Sun 10:00:12 AM 33.2314 -89.6594 257° West 415 478 43,000  Level Memphis Center
Sun 10:01:12 AM 33.2050 -89.7936 258° West 415 478 43,000  Level Memphis Center
Sun 10:02:12 AM 33.1806 -89.9278 256° West 415 478 43,000  Level Memphis Center
Sun 10:03:12 AM 33.1517 -90.0619 256° West 415 478 43,000  Level Memphis Center
Sun 10:04:12 AM 33.1269 -90.1811 257° West 415 478 43,000  Level Memphis Center
Sun 10:05:12 AM 33.1019 -90.3125 256° West 415 478 43,000  Level Memphis Center
Sun 10:06:12 AM 33.0747 -90.4439 256° West 415 478 43,000  Level Memphis Center
Sun 10:07:12 AM 33.0475 -90.5753 257° West 415 478 43,000  Level Memphis Center
Sun 10:08:12 AM 33.0222 -90.7067 256° West 415 478 43,000  Level Memphis Center
Sun 10:09:12 AM 32.9947 -90.8353 257° West 415 478 43,000  Level Memphis Center
Sun 10:10:12 AM 32.9689 -90.9664 256° West 410 472 43,000  Level Memphis Center
Sun 10:11:12 AM 32.9411 -91.0975 257° West 415 478 43,000  Level Memphis Center
Sun 10:13:34 AM 32.8778 -91.4106 256° West 403 464 43,000  Level Fort Worth Center
Sun 10:14:35 AM 32.8506 -91.5383 256° West 408 470 43,000  Level Fort Worth Center
Sun 10:15:35 AM 32.8233 -91.6689 256° West 408 470 43,000  Level Fort Worth Center
Sun 10:16:34 AM 32.7958 -91.8014 258° West 408 470 43,000  Level Fort Worth Center
Sun 10:17:34 AM 32.7722 -91.9289 254° West 403 464 43,000  Level Fort Worth Center
Sun 10:18:35 AM 32.7422 -92.0567 257° West 403 464 43,000  Level Fort Worth Center
Sun 10:19:35 AM 32.7164 -92.1867 255° West 403 464 43,000  Level Fort Worth Center
Sun 10:20:35 AM 32.6864 -92.3167 256° West 403 464 43,000  Level Fort Worth Center
Sun 10:21:35 AM 32.6583 -92.4514 255° West 416 479 43,000  Level Fort Worth Center
Sun 10:22:34 AM 32.6281 -92.5839 255° West 416 479 43,000  Level Fort Worth Center
Sun 10:23:34 AM 32.5994 -92.7111 255° West 416 479 43,000  Level Fort Worth Center
Sun 10:24:35 AM 32.5672 -92.8581 255° West 416 479 43,000  Level Fort Worth Center
Sun 10:25:34 AM 32.5383 -92.9853 264° West 416 479 43,000  Level Fort Worth Center
Sun 10:26:35 AM 32.5264 -93.1214 266° West 416 479 43,000  Level Fort Worth Center
Sun 10:27:34 AM 32.5186 -93.2597 268° West 416 479 43,000  Level Fort Worth Center
Sun 10:28:34 AM 32.5144 -93.3928 267° West 411 473 43,000  Level Fort Worth Center
Sun 10:29:34 AM 32.5083 -93.5286 267° West 411 473 43,000  Level Fort Worth Center
Sun 10:30:35 AM 32.5019 -93.6594 266° West 411 473 43,000  Level Fort Worth Center
Sun 10:31:34 AM 32.4933 -93.7953 267° West 411 473 43,000  Level Fort Worth Center
Sun 10:32:34 AM 32.4867 -93.9311 267° West 411 473 43,000  Level Fort Worth Center
Sun 10:33:34 AM 32.4800 -94.0667 267° West 411 473 43,000  Level Fort Worth Center
Sun 10:34:35 AM 32.4731 -94.2000 265° West 411 473 43,000  Level Fort Worth Center
Sun 10:35:34 AM 32.4639 -94.3356 266° West 406 467 43,000  Level Fort Worth Center
Sun 10:36:34 AM 32.4567 -94.4664 266° West 406 467 43,000  Level Fort Worth Center
Sun 10:37:35 AM 32.4492 -94.5994 267° West 406 467 43,000  Level Fort Worth Center
Sun 10:38:35 AM 32.4439 -94.7350 265° West 406 467 43,000 -900 Level Fort Worth Center
Sun 10:39:35 AM 32.4339 -94.8658 270° West 406 467 41,200 -2,200 Descending Fort Worth Center
Sun 10:40:35 AM 32.4344 -95.0011 267° West 406 467 38,600 -2,650 Descending Fort Worth Center
Sun 10:41:35 AM 32.4286 -95.1294 265° West 400 460 35,900 -2,824 Descending Fort Worth Center
Sun 10:42:34 AM 32.4183 -95.2625 266° West 405 466 33,000 -3,033 Descending Fort Worth Center
Sun 10:44:35 AM 32.4000 -95.5558 264° West 452 520 26,800 -3,133 Descending Fort Worth Center
Sun 10:45:34 AM 32.3875 -95.7011 269° West 459 528 23,600 -2,874 Descending Fort Worth Center
Sun 10:46:34 AM 32.3850 -95.8267 289° West 450 518 21,100 -2,826 Descending Fort Worth Center
Sun 10:47:35 AM 32.4264 -95.9686 295° West 417 480 17,900 -3,074 Descending Fort Worth Center
Sun 10:48:35 AM 32.4714 -96.0811 293° West 393 452 14,900 -2,773 Descending Fort Worth Center
Sun 10:49:34 AM 32.5122 -96.1964 294° West 384 442 12,400 -2,600 Descending Fort Worth Center
Sun 10:50:35 AM 32.5508 -96.2994 300° West 357 411 9,700 -1,686 Descending Fort Worth Center
Sun 10:51:35 AM 32.5933 -96.3875 303° West 329 379 9,000 -958 Descending Fort Worth Center
Sun 10:52:34 AM 32.6356 -96.4636 306° West 291 335 7,800 -1,200 Descending Fort Worth Center
Sun 10:53:35 AM 32.6822 -96.5397 315° West 285 328 6,600 -1,250 Descending Fort Worth Center
Sun 10:54:34 AM 32.7369 -96.6058 322° Northwest 280 322 5,300 -807 Descending Fort Worth Center
Sun 10:55:34 AM 32.7978 -96.6622 327° Northwest 280 322 5,000 -400 Descending Fort Worth Center
Sun 10:56:34 AM 32.8522 -96.7036 324° Northwest 267 307 4,500 -500 Descending Fort Worth Center
Sun 10:57:34 AM 32.9089 -96.7528 315° West 247 284 4,000 -250 Descending Fort Worth Center
Sun 10:58:34 AM 32.9425 -96.7922 314° West 209 241 4,000  Level Fort Worth Center
Sun 10:59:35 AM 32.9867 -96.8464 264° West 201 231 4,000 -396 Level Fort Worth Center
Sun 11:00:20 AM 32.9833 -96.8833 248° West 178 205 3,300 -600 Descending Dallas / Fort Worth TRACON
Sun 11:01:15 AM 32.9667 -96.9333 180° South 171 197 3,000 -209 Descending Dallas / Fort Worth TRACON
Sun 11:02:15 AM 32.9333 -96.9333 140° Southeast 176 203 2,900 -700 Descending Dallas / Fort Worth TRACON
Sun 11:03:15 AM 32.9000 -96.9000 140° Southeast 160 184 1,600 -1,053 Descending Dallas / Fort Worth TRACON
Sun 11:04:09 AM 32.8667 -96.8667 140° Southeast 133 153 900 -778 Descending Dallas / Fort Worth TRACON

Login

Don't have an account? Register now (free) for customized features, flight alerts, and more!